Time;durP1;ratioP1;P1;durP2;ratioP2;P2;SDS_P1;SDS_P2;PMS_P1;PMS_P2;Temp;Humidity;BMP_temperature;BMP_pressure;BME280_temperature;BME280_humidity;BME280_pressure;Samples;Min_cycle;Max_cycle;Signal;HPM_P1;HPM_P2
2022/08/06 00:00:22;;;;;;;6.50;5.90;;;;;;;23.19;100.00;99642.31;5011382;28;20425;-85
2022/08/06 00:02:48;;;;;;;5.97;5.30;;;;;;;23.20;100.00;99649.28;5011136;28;20484;-83
2022/08/06 00:05:13;;;;;;;6.13;5.57;;;;;;;23.23;100.00;99638.34;5011305;28;20045;-85
2022/08/06 00:07:38;;;;;;;6.10;5.50;;;;;;;23.19;100.00;99649.44;5011498;28;20030;-84
2022/08/06 00:10:04;;;;;;;9.70;5.47;;;;;;;23.25;100.00;99662.09;5012443;28;20034;-85
2022/08/06 00:12:32;;;;;;;5.97;5.38;;;;;;;23.25;100.00;99664.75;5012620;28;20029;-85
2022/08/06 00:14:57;;;;;;;6.45;4.78;;;;;;;23.28;100.00;99667.13;5011002;28;20025;-85
2022/08/06 00:17:24;;;;;;;6.15;5.55;;;;;;;23.28;100.00;99670.59;5011153;28;20053;-84
2022/08/06 00:19:50;;;;;;;5.88;4.85;;;;;;;23.20;100.00;99662.56;5012314;28;20036;-84
2022/08/06 00:22:15;;;;;;;7.07;5.20;;;;;;;23.24;100.00;99673.72;5011244;28;20030;-84
2022/08/06 00:24:40;;;;;;;9.82;5.20;;;;;;;23.26;100.00;99667.28;5011119;28;20065;-84
2022/08/06 00:27:06;;;;;;;11.30;5.00;;;;;;;23.26;100.00;99685.88;5010900;28;20385;-84
2022/08/06 00:29:31;;;;;;;5.47;4.97;;;;;;;23.27;100.00;99681.41;5010901;28;20045;-84
2022/08/06 00:31:56;;;;;;;5.50;4.75;;;;;;;23.22;100.00;99679.19;5027396;28;20030;-84
2022/08/06 00:34:22;;;;;;;5.38;4.53;;;;;;;23.27;100.00;99687.53;5012508;28;20461;-84
2022/08/06 00:36:48;;;;;;;5.82;5.22;;;;;;;23.29;100.00;99700.66;5010931;28;20514;-84
2022/08/06 00:39:13;;;;;;;6.13;5.40;;;;;;;23.28;100.00;99707.81;5011008;28;20096;-85
2022/08/06 00:41:39;;;;;;;5.68;5.18;;;;;;;23.23;100.00;99706.59;5010946;28;20433;-79
2022/08/06 00:44:05;;;;;;;7.30;5.55;;;;;;;23.23;100.00;99711.91;5012188;28;20202;-80
2022/08/06 00:46:30;;;;;;;7.20;4.72;;;;;;;23.25;100.00;99728.53;5010744;28;20049;-78
2022/08/06 00:48:55;;;;;;;5.80;5.10;;;;;;;23.17;100.00;99721.31;5010701;28;20069;-79
2022/08/06 00:51:22;;;;;;;6.90;5.70;;;;;;;23.19;100.00;99732.63;5012227;28;20052;-79
2022/08/06 00:53:48;;;;;;;6.55;5.47;;;;;;;23.21;100.00;99738.63;5011986;28;20394;-80
2022/08/06 00:56:13;;;;;;;6.32;5.47;;;;;;;23.13;100.00;99741.19;5010656;28;20053;-80
2022/08/06 00:58:39;;;;;;;6.40;5.80;;;;;;;23.13;100.00;99741.19;5011998;28;20454;-80
2022/08/06 01:01:04;;;;;;;10.63;5.43;;;;;;;23.14;100.00;99740.22;5011823;28;20405;-80
2022/08/06 01:03:30;;;;;;;8.15;6.40;;;;;;;23.06;100.00;99710.91;5012185;28;20092;-79
2022/08/06 01:05:56;;;;;;;6.25;5.60;;;;;;;23.09;100.00;99719.44;5024449;28;20397;-80
2022/08/06 01:08:21;;;;;;;6.88;6.18;;;;;;;23.07;100.00;99736.50;5014083;28;20025;-80
2022/08/06 01:10:47;;;;;;;7.70;7.00;;;;;;;22.95;100.00;99719.09;5031795;28;20037;-80
2022/08/06 01:13:12;;;;;;;11.43;7.82;;;;;;;22.87;100.00;99695.88;5031494;28;20537;-80
2022/08/06 01:15:41;;;;;;;11.90;8.65;;;;;;;22.73;100.00;99680.47;5031545;28;20095;-80
2022/08/06 01:18:09;;;;;;;12.52;9.38;;;;;;;22.59;100.00;99677.34;5031578;28;20025;-81
2022/08/06 01:20:50;;;;;;;11.13;10.00;;;;;;;22.41;100.00;99687.03;5031621;28;20029;-82
2022/08/06 01:23:40;;;;;;;14.35;10.20;;;;;;;22.28;100.00;99697.16;5031592;28;20025;-81
2022/08/06 01:26:11;;;;;;;11.50;10.35;;;;;;;22.15;100.00;99716.06;5031280;28;20026;-81
2022/08/06 01:28:58;;;;;;;12.50;10.55;;;;;;;22.02;100.00;99718.97;5031406;28;20037;-81
2022/08/06 01:31:46;;;;;;;11.60;10.30;;;;;;;21.91;100.00;99725.31;5035049;28;20428;-82
2022/08/06 01:34:33;;;;;;;14.52;11.68;;;;;;;21.88;100.00;99741.47;5034925;28;20464;-81
2022/08/06 01:37:09;;;;;;;16.48;12.07;;;;;;;21.85;100.00;99755.03;5034905;28;20074;-82
2022/08/06 01:39:37;;;;;;;13.57;11.60;;;;;;;21.78;100.00;99738.00;5035322;28;20022;-82
2022/08/06 01:42:05;;;;;;;17.33;12.27;;;;;;;21.79;100.00;99741.50;5034871;28;20488;-81
2022/08/06 01:44:36;;;;;;;13.27;11.88;;;;;;;21.83;100.00;99756.16;5017164;28;20045;-82
2022/08/06 01:47:07;;;;;;;14.30;11.18;;;;;;;21.77;100.00;99752.22;5034967;28;20069;-81
2022/08/06 01:49:36;;;;;;;15.55;11.63;;;;;;;21.75;100.00;99758.66;5017198;28;20120;-82
2022/08/06 01:52:02;;;;;;;15.13;12.32;;;;;;;21.76;100.00;99773.59;5016929;28;20112;-81
2022/08/06 01:54:30;;;;;;;16.45;12.10;;;;;;;21.81;100.00;99784.59;5034924;28;20029;-82
2022/08/06 01:56:57;;;;;;;11.68;10.48;;;;;;;21.78;100.00;99795.47;5016846;28;20052;-82
2022/08/06 01:59:27;;;;;;;10.55;9.45;;;;;;;21.72;100.00;99796.88;5034701;28;20144;-82
2022/08/06 02:01:56;;;;;;;12.13;9.00;;;;;;;21.68;100.00;99808.75;5016869;28;20462;-82
2022/08/06 02:04:25;;;;;;;9.65;8.65;;;;;;;21.58;100.00;99810.56;5017025;28;20381;-82
2022/08/06 02:06:52;;;;;;;9.73;8.27;;;;;;;21.42;100.00;99803.16;5034577;28;20428;-82
2022/08/06 02:09:20;;;;;;;10.85;9.50;;;;;;;21.37;100.00;99816.81;5034731;28;20029;-83
2022/08/06 02:11:53;;;;;;;11.50;9.60;;;;;;;21.32;100.00;99816.38;5034812;28;20042;-82
2022/08/06 02:14:20;;;;;;;11.07;9.25;;;;;;;21.27;100.00;99821.19;5015125;28;20025;-79
2022/08/06 02:16:46;;;;;;;11.73;9.48;;;;;;;21.16;100.00;99813.38;5034519;28;20473;-81
2022/08/06 02:19:13;;;;;;;13.38;10.18;;;;;;;21.11;100.00;99818.22;5038008;28;20020;-81
2022/08/06 02:21:41;;;;;;;10.55;9.38;;;;;;;21.09;100.00;99822.81;5054470;28;20029;-82
2022/08/06 02:24:09;;;;;;;10.55;9.45;;;;;;;21.00;100.00;99813.03;5036196;28;20029;-83
2022/08/06 02:26:37;;;;;;;11.27;9.35;;;;;;;20.98;100.00;99826.41;5036356;28;20033;-83
2022/08/06 02:29:05;;;;;;;10.90;9.32;;;;;;;20.96;100.00;99833.66;5054055;28;20079;-83
2022/08/06 02:31:31;;;;;;;10.73;9.70;;;;;;;20.91;100.00;99836.69;5054283;28;20033;-83
2022/08/06 02:33:56;;;;;;;12.98;9.00;;;;;;;20.93;100.00;99857.75;5053885;28;20123;-82
2022/08/06 02:36:32;;;;;;;12.00;9.65;;;;;;;20.90;100.00;99864.16;5053690;28;20033;-82
2022/08/06 02:39:03;;;;;;;9.57;8.68;;;;;;;20.89;100.00;99880.16;5053703;28;20033;-80
2022/08/06 02:41:35;;;;;;;8.73;7.90;;;;;;;20.84;100.00;99896.44;5034792;28;20032;-80
2022/08/06 02:44:14;;;;;;;9.45;8.27;;;;;;;20.76;100.00;99904.19;5053622;28;20052;-81
2022/08/06 02:46:47;;;;;;;8.65;7.57;;;;;;;20.68;100.00;99918.06;5053672;28;20029;-80
2022/08/06 02:49:19;;;;;;;8.50;7.60;;;;;;;20.60;100.00;99915.22;5053237;28;20025;-81
2022/08/06 02:51:52;;;;;;;8.57;6.93;;;;;;;20.51;100.00;99910.72;5053630;28;20634;-81
2022/08/06 02:54:25;;;;;;;9.35;6.78;;;;;;;20.53;100.00;99915.91;5036025;28;20357;-81
2022/08/06 02:56:54;;;;;;;9.13;7.68;;;;;;;20.33;100.00;99886.59;5053766;28;20033;-81
2022/08/06 02:59:27;;;;;;;8.60;7.05;;;;;;;20.30;100.00;99886.03;5053624;28;20075;-81
2022/08/06 03:01:58;;;;;;;9.05;7.00;;;;;;;20.15;100.00;99875.75;5053326;28;20094;-81
2022/08/06 03:04:25;;;;;;;9.35;7.00;;;;;;;20.14;100.00;99881.16;5053553;28;20464;-81
2022/08/06 03:06:52;;;;;;;10.23;7.03;;;;;;;20.06;100.00;99870.41;5035530;28;20025;-80
2022/08/06 03:09:20;;;;;;;8.23;6.32;;;;;;;19.97;100.00;99856.09;5053229;28;20074;-80
2022/08/06 03:11:47;;;;;;;8.50;6.45;;;;;;;19.89;100.00;99848.84;5053460;28;20025;-80
2022/08/06 03:14:15;;;;;;;6.63;5.97;;;;;;;19.81;100.00;99863.66;5053070;28;20650;-80
2022/08/06 03:16:41;;;;;;;7.38;6.10;;;;;;;19.74;100.00;99860.66;5053496;28;20025;-80
2022/08/06 03:19:09;;;;;;;7.18;5.45;;;;;;;19.65;100.00;99878.09;5035160;28;20033;-80
2022/08/06 03:21:36;;;;;;;7.32;5.15;;;;;;;19.62;100.00;99885.41;5035409;28;20372;-80
2022/08/06 03:24:02;;;;;;;7.07;5.03;;;;;;;19.55;100.00;99889.47;5034942;28;20029;-80
2022/08/06 03:26:29;;;;;;;6.05;3.97;;;;;;;19.52;100.00;99887.94;5053489;28;20039;-80
2022/08/06 03:28:56;;;;;;;4.85;3.80;;;;;;;19.41;100.00;99877.38;5052709;28;20029;-80
2022/08/06 03:31:23;;;;;;;4.70;3.90;;;;;;;19.30;100.00;99869.47;5053011;28;20484;-80
2022/08/06 03:33:50;;;;;;;4.53;3.83;;;;;;;19.29;100.00;99875.72;5034991;28;20029;-81
2022/08/06 03:36:17;;;;;;;5.30;3.88;;;;;;;19.27;100.00;99877.66;5052857;28;20045;-81
2022/08/06 03:38:51;;;;;;;6.22;3.95;;;;;;;19.15;100.00;99864.44;5035046;28;20033;-81
2022/08/06 03:41:18;;;;;;;6.13;3.38;;;;;;;19.10;100.00;99861.31;5034609;28;20025;-80
2022/08/06 03:43:43;;;;;;;4.40;3.42;;;;;;;19.10;100.00;99882.44;5052838;28;20372;-80
2022/08/06 03:46:09;;;;;;;4.22;3.80;;;;;;;19.09;100.00;99891.34;5052806;28;20025;-80
2022/08/06 03:48:39;;;;;;;3.72;3.17;;;;;;;19.05;100.00;99896.97;5052670;28;20091;-81
2022/08/06 03:51:19;;;;;;;4.22;3.28;;;;;;;18.98;100.00;99899.25;5052539;28;20488;-81
2022/08/06 03:53:47;;;;;;;2.85;2.65;;;;;;;19.04;100.00;99903.19;5052309;28;20121;-81
2022/08/06 03:56:24;;;;;;;3.42;3.05;;;;;;;18.93;100.00;99904.88;5052825;28;20029;-80
2022/08/06 03:58:51;;;;;;;3.38;2.85;;;;;;;18.80;100.00;99898.88;5034693;28;20198;-81
2022/08/06 04:01:21;;;;;;;4.07;3.13;;;;;;;18.84;100.00;99921.44;5052243;28;20484;-80
2022/08/06 04:03:48;;;;;;;5.72;3.65;;;;;;;18.78;100.00;99928.97;5052389;28;20041;-80
2022/08/06 04:06:13;;;;;;;4.72;4.15;;;;;;;18.73;100.00;99934.59;5052256;28;20076;-81
2022/08/06 04:08:40;;;;;;;6.32;4.85;;;;;;;18.60;100.00;99932.00;5052251;28;20533;-80
2022/08/06 04:11:08;;;;;;;5.85;4.95;;;;;;;18.53;100.00;99940.50;5052153;28;20384;-80
2022/08/06 04:13:34;;;;;;;6.70;5.90;;;;;;;18.37;100.00;99953.97;5052507;28;20048;-80
2022/08/06 04:16:01;;;;;;;9.20;6.53;;;;;;;18.26;100.00;99954.78;5051914;28;20052;-80
2022/08/06 04:18:33;;;;;;;7.57;5.32;;;;;;;18.18;100.00;99971.16;5052090;28;20025;-80
2022/08/06 04:21:16;;;;;;;5.60;4.80;;;;;;;18.05;100.00;99957.19;5051658;28;20025;-81
2022/08/06 04:23:42;;;;;;;7.57;5.45;;;;;;;18.04;100.00;99978.41;5029441;28;20036;-81
2022/08/06 04:26:11;;;;;;;5.35;4.57;;;;;;;17.89;100.00;99985.59;5029304;28;20044;-81
2022/08/06 04:28:41;;;;;;;7.88;4.47;;;;;;;17.82;100.00;100005.41;5029786;28;20544;-80
2022/08/06 04:31:07;;;;;;;4.82;3.67;;;;;;;17.72;100.00;100007.84;5029263;28;20388;-80
2022/08/06 04:33:34;;;;;;;5.20;3.58;;;;;;;17.56;100.00;100015.97;5029764;28;20049;-80
2022/08/06 04:36:04;;;;;;;6.55;3.90;;;;;;;17.49;100.00;100011.22;5029294;28;20443;-80
2022/08/06 04:38:31;;;;;;;3.50;3.20;;;;;;;17.34;100.00;100007.88;5029466;28;20040;-80
2022/08/06 04:40:58;;;;;;;4.38;3.22;;;;;;;17.33;100.00;100016.75;5029481;28;20033;-80
2022/08/06 04:43:23;;;;;;;5.45;3.80;;;;;;;17.33;100.00;100037.81;5029309;28;20078;-80
2022/08/06 04:45:49;;;;;;;4.00;3.10;;;;;;;17.21;100.00;100029.78;5029329;28;20037;-80
2022/08/06 04:48:16;;;;;;;4.28;3.13;;;;;;;17.31;100.00;100050.22;5029336;28;20118;-81
2022/08/06 04:50:41;;;;;;;3.28;2.97;;;;;;;17.28;100.00;100051.28;5029377;28;20037;-81
2022/08/06 04:53:16;;;;;;;3.17;2.90;;;;;;;17.25;100.00;100048.00;5029057;28;20447;-80
2022/08/06 04:55:43;;;;;;;5.63;3.17;;;;;;;17.10;100.00;100029.66;5049654;28;20124;-80
2022/08/06 04:58:10;;;;;;;5.20;3.47;;;;;;;17.23;100.00;100055.16;5051489;28;20542;-81
2022/08/06 05:00:43;;;;;;;3.35;3.03;;;;;;;17.10;100.00;100032.28;5033890;28;20029;-81
2022/08/06 05:03:09;;;;;;;3.40;2.90;;;;;;;17.23;100.00;100068.31;5051472;28;20108;-80
2022/08/06 05:05:39;;;;;;;7.15;3.65;;;;;;;17.24;100.00;100070.03;5054270;28;20131;-81
2022/08/06 05:08:07;;;;;;;4.22;2.97;;;;;;;17.13;100.00;100058.41;5055874;28;20025;-81
2022/08/06 05:10:43;;;;;;;4.68;3.17;;;;;;;17.19;100.00;100080.84;5037749;28;20040;-81
2022/08/06 05:13:11;;;;;;;4.20;3.10;;;;;;;17.16;100.00;100086.31;5055648;28;20115;-81
2022/08/06 05:15:40;;;;;;;3.50;3.20;;;;;;;17.17;100.00;100095.91;5037893;28;20068;-81
2022/08/06 05:18:15;;;;;;;4.18;3.00;;;;;;;17.16;100.00;100107.38;5037497;28;20476;-81
2022/08/06 05:20:47;;;;;;;4.35;3.28;;;;;;;17.10;100.00;100090.19;5055369;28;20040;-81
2022/08/06 05:23:20;;;;;;;3.63;3.10;;;;;;;17.24;100.00;100122.66;5037362;28;20035;-81
2022/08/06 05:25:47;;;;;;;6.03;3.08;;;;;;;17.19;100.00;100134.34;5037685;28;20074;-81
2022/08/06 05:28:13;;;;;;;3.47;3.17;;;;;;;17.25;100.00;100134.88;5037348;28;20021;-81
2022/08/06 05:30:46;;;;;;;4.97;3.15;;;;;;;17.23;100.00;100128.84;5055217;28;20032;-81
2022/08/06 05:33:21;;;;;;;4.90;3.55;;;;;;;17.27;100.00;100140.88;5055176;28;20112;-81
2022/08/06 05:35:46;;;;;;;5.47;3.75;;;;;;;17.21;100.00;100135.06;5037295;28;20078;-80
2022/08/06 05:38:12;;;;;;;4.45;3.50;;;;;;;17.19;100.00;100129.09;5055176;28;20025;-80
2022/08/06 05:40:38;;;;;;;4.75;3.55;;;;;;;17.26;100.00;100137.41;5037378;28;20029;-81
2022/08/06 05:43:04;;;;;;;4.07;3.60;;;;;;;17.24;100.00;100134.03;5054968;28;20534;-81
2022/08/06 05:45:31;;;;;;;4.00;3.53;;;;;;;17.29;100.00;100147.72;5055082;28;20033;-81
2022/08/06 05:48:00;;;;;;;4.45;3.40;;;;;;;17.26;100.00;100153.19;5055039;28;20025;-80
2022/08/06 05:50:34;;;;;;;4.72;3.67;;;;;;;17.33;100.00;100172.06;5054545;28;20033;-80
2022/08/06 05:53:09;;;;;;;5.60;3.40;;;;;;;17.35;100.00;100180.69;5055106;28;20021;-81
2022/08/06 05:55:40;;;;;;;3.55;3.25;;;;;;;17.27;100.00;100156.66;5054942;28;20032;-80
2022/08/06 05:58:12;;;;;;;4.93;3.80;;;;;;;17.35;100.00;100183.34;5036636;28;20021;-80
2022/08/06 06:00:40;;;;;;;6.20;3.95;;;;;;;17.31;100.00;100166.06;5054789;28;20029;-80
2022/08/06 06:03:07;;;;;;;4.40;3.97;;;;;;;17.36;100.00;100187.66;5054359;28;20037;-80
2022/08/06 06:05:35;;;;;;;5.18;3.80;;;;;;;17.32;100.00;100189.66;5054652;28;20077;-86
2022/08/06 06:08:00;;;;;;;6.20;4.13;;;;;;;17.32;100.00;100176.50;5036805;28;20036;-85
2022/08/06 06:10:27;;;;;;;5.57;3.85;;;;;;;17.36;100.00;100183.25;5036496;28;20033;-85
2022/08/06 06:12:54;;;;;;;6.75;3.70;;;;;;;17.42;100.00;100184.63;5036645;28;20520;-85
2022/08/06 06:15:20;;;;;;;5.30;4.03;;;;;;;17.33;100.00;100164.19;5054096;28;20104;-85
2022/08/06 06:18:00;;;;;;;4.95;3.60;;;;;;;17.50;100.00;100166.53;5036511;28;20120;-85
2022/08/06 06:20:32;;;;;;;4.18;3.15;;;;;;;17.49;100.00;100159.56;5054175;28;20483;-86
2022/08/06 06:23:11;;;;;;;4.32;3.63;;;;;;;17.53;100.00;100176.00;5036535;28;20119;-86
2022/08/06 06:26:19;;;;;;;7.47;4.38;;;;;;;17.66;100.00;100192.69;5054341;28;20033;-86
2022/08/06 06:28:58;;;;;;;5.55;3.58;;;;;;;17.68;100.00;100188.97;5028389;28;20484;-85
2022/08/06 06:31:28;;;;;;;3.92;3.53;;;;;;;17.76;100.00;100190.28;4995363;28;20054;-85
2022/08/06 06:34:17;;;;;;;4.05;3.60;;;;;;;17.79;100.00;100196.19;4995542;28;20038;-85
2022/08/06 06:37:01;;;;;;;6.25;4.10;;;;;;;17.80;100.00;100189.13;4995650;28;20153;-85
2022/08/06 06:39:26;;;;;;;4.93;3.50;;;;;;;17.83;100.00;100210.84;4995301;28;20031;-85
2022/08/06 06:42:03;;;;;;;4.97;3.83;;;;;;;17.83;100.00;100207.38;4995406;28;20521;-85
2022/08/06 06:44:37;;;;;;;5.22;4.43;;;;;;;17.82;100.00;100200.41;4995099;28;20029;-85
2022/08/06 06:47:25;;;;;;;5.38;4.25;;;;;;;17.80;100.00;100218.13;5012184;28;20050;-85
2022/08/06 06:49:59;;;;;;;5.03;3.72;;;;;;;17.71;100.00;100211.66;5011549;28;20076;-85
2022/08/06 06:52:33;;;;;;;7.72;3.83;;;;;;;17.74;100.00;100216.75;5011432;28;20042;-85
2022/08/06 06:55:08;;;;;;;5.70;4.00;;;;;;;17.78;100.00;100223.50;5011836;28;20032;-85
2022/08/06 06:57:38;;;;;;;4.45;3.97;;;;;;;17.81;100.00;100235.63;4995191;28;20040;-85
2022/08/06 07:00:05;;;;;;;5.27;3.93;;;;;;;17.80;100.00;100244.47;4995021;28;20141;-85
2022/08/06 07:02:34;;;;;;;4.00;3.65;;;;;;;17.76;100.00;100243.81;5011251;28;20034;-85
2022/08/06 07:05:02;;;;;;;4.22;3.83;;;;;;;17.69;100.00;100231.97;5002462;28;20037;-85
2022/08/06 07:07:31;;;;;;;5.70;3.83;;;;;;;17.76;100.00;100238.56;5035473;28;20124;-86
2022/08/06 07:09:58;;;;;;;4.38;3.90;;;;;;;17.66;100.00;100219.88;5035652;28;20056;-85
2022/08/06 07:12:25;;;;;;;4.95;3.90;;;;;;;17.76;100.00;100249.09;5053345;28;20029;-85
2022/08/06 07:14:53;;;;;;;4.82;4.30;;;;;;;17.72;100.00;100252.84;5053504;28;20035;-85
2022/08/06 07:17:20;;;;;;;3.90;3.50;;;;;;;17.70;100.00;100238.94;5035203;28;20411;-85
2022/08/06 07:19:50;;;;;;;5.35;4.07;;;;;;;17.74;100.00;100250.09;5030691;28;20099;-85
2022/08/06 07:22:16;;;;;;;4.45;4.05;;;;;;;17.68;100.00;100239.03;5030489;28;20401;-86
2022/08/06 07:24:42;;;;;;;5.15;3.40;;;;;;;17.76;100.00;100262.28;5030773;28;20083;-85
2022/08/06 07:27:08;;;;;;;6.75;4.28;;;;;;;17.73;100.00;100266.88;5030213;28;20037;-85
2022/08/06 07:29:35;;;;;;;4.07;3.65;;;;;;;17.71;100.00;100264.34;5030540;28;20488;-85
2022/08/06 07:32:01;;;;;;;4.90;4.13;;;;;;;17.76;100.00;100267.53;5030742;28;20099;-85
2022/08/06 07:34:27;;;;;;;4.50;4.10;;;;;;;17.74;100.00;100271.19;5013874;28;20045;-86
2022/08/06 07:36:54;;;;;;;5.10;3.70;;;;;;;17.72;100.00;100266.03;5030490;28;20134;-85
2022/08/06 07:39:26;;;;;;;6.28;4.70;;;;;;;17.76;100.00;100267.53;5030142;28;20534;-85
2022/08/06 07:41:54;;;;;;;4.72;4.22;;;;;;;17.66;100.00;100264.66;5030425;28;20029;-84
2022/08/06 07:44:22;;;;;;;7.65;4.07;;;;;;;17.73;100.00;100283.50;5029962;28;20060;-86
2022/08/06 07:46:51;;;;;;;4.88;4.28;;;;;;;17.73;100.00;100287.94;5030149;28;20045;-85
2022/08/06 07:49:20;;;;;;;4.68;3.70;;;;;;;17.71;100.00;100286.25;5029915;28;20029;-85
2022/08/06 07:51:47;;;;;;;5.65;4.32;;;;;;;17.62;100.00;100267.59;5034239;28;20048;-84
2022/08/06 07:54:14;;;;;;;4.88;3.97;;;;;;;17.71;100.00;100290.69;5052293;28;20040;-84
2022/08/06 07:56:43;;;;;;;5.30;3.90;;;;;;;17.69;100.00;100296.03;5034701;28;20021;-85
2022/08/06 07:59:09;;;;;;;4.95;4.35;;;;;;;17.68;100.00;100289.09;5034479;28;20037;-84
2022/08/06 08:01:37;;;;;;;5.82;4.45;;;;;;;17.66;100.00;100290.16;5029779;28;20033;-84
2022/08/06 08:07:02;;;;;;;8.60;3.90;;;;;;;17.70;100.00;100316.19;4990525;28;20489;-85
2022/08/06 08:09:28;;;;;;;8.45;4.32;;;;;;;17.68;100.00;100325.97;4973558;28;20517;-84
2022/08/06 08:11:55;;;;;;;5.70;4.03;;;;;;;17.71;100.00;100324.94;4990396;28;20397;-84
2022/08/06 08:14:21;;;;;;;4.43;4.03;;;;;;;17.75;100.00;100326.47;4990210;28;20059;-85
2022/08/06 08:16:48;;;;;;;6.95;4.35;;;;;;;17.87;100.00;100309.84;4973959;28;20038;-85
2022/08/06 08:19:26;;;;;;;5.30;4.40;;;;;;;17.95;100.00;100327.78;4973633;28;20038;-85
2022/08/06 08:21:52;;;;;;;8.25;4.18;;;;;;;17.80;100.00;100300.66;4990343;28;20038;-85
2022/08/06 08:24:17;;;;;;;4.53;4.00;;;;;;;17.92;100.00;100322.72;4973828;28;20141;-86
2022/08/06 08:26:44;;;;;;;4.38;3.97;;;;;;;17.92;100.00;100320.06;4973866;28;20485;-85
2022/08/06 08:29:10;;;;;;;5.78;4.72;;;;;;;17.87;100.00;100330.09;4990066;28;20037;-85
2022/08/06 08:31:36;;;;;;;4.82;4.20;;;;;;;17.82;100.00;100333.00;4972115;28;20097;-85
2022/08/06 08:34:01;;;;;;;6.43;4.80;;;;;;;17.72;100.00;100323.97;4954666;28;20518;-85
2022/08/06 08:36:26;;;;;;;9.48;4.22;;;;;;;17.83;100.00;100336.50;4954354;28;20502;-85
2022/08/06 08:38:56;;;;;;;6.38;4.40;;;;;;;17.83;100.00;100337.34;4969932;28;20031;-84
2022/08/06 08:41:26;;;;;;;5.38;4.22;;;;;;;17.89;100.00;100341.34;4970099;28;20548;-85
2022/08/06 08:44:06;;;;;;;4.63;4.13;;;;;;;17.92;100.00;100344.63;4983118;28;20034;-85
2022/08/06 08:46:38;;;;;;;6.17;4.67;;;;;;;18.04;100.00;100353.53;5010623;28;20117;-85
2022/08/06 08:49:04;;;;;;;5.80;4.47;;;;;;;18.14;100.00;100353.75;5010768;28;20088;-85
2022/08/06 08:51:32;;;;;;;6.78;4.10;;;;;;;18.23;100.00;100347.00;5011877;28;20036;-85
2022/08/06 08:54:00;;;;;;;4.18;3.78;;;;;;;18.45;100.00;100339.31;5010962;28;20726;-84
2022/08/06 08:56:26;;;;;;;6.93;4.60;;;;;;;18.58;100.00;100334.06;5011975;28;20474;-85
2022/08/06 08:58:51;;;;;;;4.53;4.13;;;;;;;18.72;100.00;100355.09;5012168;28;20026;-84
2022/08/06 09:01:18;;;;;;;5.63;4.43;;;;;;;18.88;100.00;100354.88;5010659;28;20176;-85
2022/08/06 09:03:43;;;;;;;7.07;4.70;;;;;;;19.06;100.00;100348.31;5010776;28;20112;-85
2022/08/06 09:06:10;;;;;;;5.68;4.32;;;;;;;19.38;100.00;100348.66;5023084;28;20544;-84
2022/08/06 09:08:36;;;;;;;5.25;4.32;;;;;;;19.95;100.00;100355.09;5029967;28;20187;-84
2022/08/06 09:11:02;;;;;;;4.78;4.10;;;;;;;20.46;100.00;100338.03;5030451;28;20056;-85
2022/08/06 09:13:28;;;;;;;4.43;3.60;;;;;;;20.90;100.00;100356.63;5030226;28;20495;-85
2022/08/06 09:15:54;;;;;;;6.25;3.85;;;;;;;21.39;98.31;100354.56;5030457;28;20476;-84
2022/08/06 09:18:21;;;;;;;4.13;3.55;;;;;;;21.85;95.59;100348.16;5031432;28;20499;-85
2022/08/06 09:20:46;;;;;;;3.97;3.58;;;;;;;22.11;94.33;100346.81;5030163;28;20025;-84
2022/08/06 09:23:16;;;;;;;4.43;3.38;;;;;;;22.16;89.96;100349.13;5030487;28;20033;-86
2022/08/06 09:25:48;;;;;;;5.63;3.40;;;;;;;22.34;90.27;100349.41;5030396;28;20018;-86
2022/08/06 09:28:30;;;;;;;5.10;3.00;;;;;;;22.18;87.00;100347.19;5030127;28;20034;-86
2022/08/06 09:31:10;;;;;;;3.95;3.05;;;;;;;22.15;88.49;100360.72;5030083;28;20037;-85
2022/08/06 09:33:39;;;;;;;4.07;3.40;;;;;;;22.16;86.17;100351.78;5031238;28;20036;-85
2022/08/06 09:36:12;;;;;;;3.40;3.10;;;;;;;22.29;86.70;100351.59;5030125;28;20022;-85
2022/08/06 09:38:56;;;;;;;7.78;3.78;;;;;;;22.32;83.38;100354.00;5029968;28;20063;-85
2022/08/06 09:41:25;;;;;;;3.22;2.92;;;;;;;22.47;85.23;100367.78;5029910;28;20034;-86
2022/08/06 09:43:53;;;;;;;4.28;3.03;;;;;;;22.52;84.70;100369.06;5028690;28;20053;-86
2022/08/06 09:46:40;;;;;;;4.50;3.22;;;;;;;22.57;85.14;100371.31;5028480;28;20037;-85
2022/08/06 09:49:06;;;;;;;3.70;3.20;;;;;;;22.58;83.67;100363.22;5028866;28;20038;-85
2022/08/06 09:51:34;;;;;;;3.05;2.80;;;;;;;22.66;82.33;100379.34;5030660;28;20492;-87
2022/08/06 09:54:02;;;;;;;3.40;2.95;;;;;;;22.33;79.04;100372.47;5032385;28;20045;-86
2022/08/06 09:56:27;;;;;;;2.75;2.55;;;;;;;22.31;80.88;100379.69;5032124;28;20447;-86
2022/08/06 09:59:00;;;;;;;4.03;2.90;;;;;;;22.22;80.35;100383.13;5032294;28;20037;-86
2022/08/06 10:01:27;;;;;;;3.05;2.75;;;;;;;22.19;80.88;100387.84;5029921;28;20033;-86
2022/08/06 10:03:56;;;;;;;6.32;3.00;;;;;;;22.16;80.76;100376.53;5012259;28;20493;-88
2022/08/06 10:06:23;;;;;;;6.05;2.75;;;;;;;22.33;80.74;100380.41;5012075;28;20104;-88
2022/08/06 10:08:50;;;;;;;4.70;2.88;;;;;;;22.53;80.26;100386.66;4992724;28;20069;-89
2022/08/06 10:11:33;;;;;;;4.40;3.08;;;;;;;22.52;77.43;100379.69;4976372;28;20050;-87
2022/08/06 10:13:58;;;;;;;4.45;2.70;;;;;;;22.33;77.10;100391.03;4976524;28;20038;-88
2022/08/06 10:16:26;;;;;;;4.93;2.58;;;;;;;22.32;79.58;100381.38;4975936;28;20466;-88
2022/08/06 10:18:53;;;;;;;3.47;2.60;;;;;;;22.30;78.57;100404.56;4992465;28;20126;-88
2022/08/06 10:21:22;;;;;;;2.90;2.70;;;;;;;22.17;79.13;100396.78;4992233;28;20089;-87
2022/08/06 10:23:50;;;;;;;3.58;2.63;;;;;;;22.08;76.41;100386.03;4992568;28;20117;-88
2022/08/06 10:26:25;;;;;;;5.10;2.60;;;;;;;22.04;77.54;100393.44;4992316;28;20038;-88
2022/08/06 10:28:52;;;;;;;6.10;2.63;;;;;;;22.17;76.85;100403.91;4992443;28;20110;-88
2022/08/06 10:31:18;;;;;;;4.53;2.67;;;;;;;22.30;77.57;100403.72;4992202;28;20038;-88
2022/08/06 10:34:06;;;;;;;3.95;2.70;;;;;;;22.47;74.52;100397.81;4976103;28;20038;-87
2022/08/06 10:36:36;;;;;;;3.53;2.10;;;;;;;22.32;76.52;100370.75;4992076;28;20469;-88
2022/08/06 10:39:02;;;;;;;6.32;2.55;;;;;;;22.34;75.23;100397.19;4979992;28;20561;-87
2022/08/06 10:41:29;;;;;;;6.15;2.60;;;;;;;22.32;75.08;100391.97;5012888;28;20032;-88
2022/08/06 10:43:56;;;;;;;3.13;2.17;;;;;;;22.38;75.61;100388.00;5012976;28;20037;-87
2022/08/06 10:46:22;;;;;;;2.95;2.40;;;;;;;22.20;75.32;100389.50;5012579;28;20478;-87
2022/08/06 10:48:47;;;;;;;2.30;2.08;;;;;;;21.94;75.82;100397.78;5012884;28;20040;-87
2022/08/06 10:51:13;;;;;;;3.83;1.92;;;;;;;21.73;77.49;100386.28;5013026;28;20033;-88
2022/08/06 10:53:41;;;;;;;3.00;2.20;;;;;;;21.71;79.56;100396.19;5012607;28;20022;-87
2022/08/06 10:56:08;;;;;;;2.75;1.90;;;;;;;21.60;76.15;100381.97;5012653;28;20227;-87
2022/08/06 10:58:36;;;;;;;1.90;1.70;;;;;;;21.88;76.20;100390.34;5012428;28;20389;-88
2022/08/06 11:01:07;;;;;;;4.07;2.03;;;;;;;22.05;73.86;100384.50;5012535;28;20121;-89
2022/08/06 11:03:54;;;;;;;3.08;1.98;;;;;;;21.94;71.90;100387.19;5011808;28;20032;-88
2022/08/06 11:06:45;;;;;;;2.30;1.70;;;;;;;21.68;73.23;100389.31;5029376;28;20051;-87
2022/08/06 11:09:28;;;;;;;3.47;1.88;;;;;;;21.55;74.48;100389.47;5035496;28;20381;-88
2022/08/06 11:12:19;;;;;;;2.08;1.73;;;;;;;21.49;75.49;100382.03;5053757;28;20033;-88
2022/08/06 11:14:45;;;;;;;2.55;1.85;;;;;;;21.74;74.64;100377.34;5035485;28;20029;-87
2022/08/06 11:17:11;;;;;;;2.28;1.75;;;;;;;22.03;73.68;100373.16;5035408;28;20468;-87
2022/08/06 11:19:45;;;;;;;1.95;1.70;;;;;;;22.32;72.11;100370.75;5034995;28;20123;-87
2022/08/06 11:22:40;;;;;;;3.10;2.10;;;;;;;22.36;70.18;100380.13;5035565;28;20128;-88
2022/08/06 11:25:11;;;;;;;2.75;1.70;;;;;;;22.09;71.43;100377.97;5030694;28;20489;-87
2022/08/06 11:27:56;;;;;;;3.80;1.63;;;;;;;21.99;73.62;100368.22;5013876;28;20069;-87
2022/08/06 11:30:36;;;;;;;3.13;1.55;;;;;;;21.83;72.92;100366.88;5013810;28;20541;-86
2022/08/06 11:33:01;;;;;;;3.25;1.70;;;;;;;21.93;71.39;100381.03;5030666;28;20129;-86